createdAt,value
2022-10-18T00:01:05.887Z,21.62
2022-10-18T00:03:35.100Z,20.40
2022-10-18T00:06:03.904Z,20.00
2022-10-18T00:08:31.582Z,23.05
2022-10-18T00:10:59.433Z,22.73
2022-10-18T00:13:27.157Z,23.95
2022-10-18T00:15:58.317Z,21.40
2022-10-18T00:18:26.972Z,22.75
2022-10-18T00:21:03.839Z,24.23
2022-10-18T00:23:33.473Z,24.77
2022-10-18T00:26:17.798Z,18.77
2022-10-18T00:28:47.258Z,27.60
2022-10-18T00:31:24.109Z,24.90
2022-10-18T00:33:59.422Z,24.37
2022-10-18T00:36:28.861Z,26.73
2022-10-18T00:38:57.308Z,21.98
2022-10-18T00:41:28.535Z,21.83
2022-10-18T00:44:02.372Z,24.00
2022-10-18T00:46:38.912Z,23.62
2022-10-18T00:49:11.913Z,26.62
2022-10-18T00:51:46.607Z,21.33
2022-10-18T00:54:16.613Z,19.65
2022-10-18T00:56:45.062Z,25.75
2022-10-18T00:59:15.210Z,22.00
2022-10-18T01:01:43.716Z,21.23
2022-10-18T01:04:13.993Z,23.52
2022-10-18T01:07:37.021Z,21.77
2022-10-18T01:10:17.020Z,25.00
2022-10-18T01:13:23.400Z,19.35
2022-10-18T01:16:25.700Z,19.25
2022-10-18T01:19:34.153Z,23.77
2022-10-18T01:22:07.669Z,19.48
2022-10-18T01:24:56.876Z,21.55
2022-10-18T01:27:38.321Z,22.40
2022-10-18T01:31:00.079Z,20.33
2022-10-18T01:33:33.902Z,19.27
2022-10-18T01:36:04.062Z,20.40
2022-10-18T01:38:34.935Z,22.92
2022-10-18T01:41:04.608Z,22.52
2022-10-18T01:43:34.736Z,22.42
2022-10-18T01:46:04.296Z,22.80
2022-10-18T01:48:33.512Z,22.77
2022-10-18T01:51:01.116Z,24.02
2022-10-18T01:53:33.923Z,19.98
2022-10-18T01:56:21.010Z,23.60
2022-10-18T01:58:56.991Z,25.05
2022-10-18T02:01:42.505Z,24.15
2022-10-18T02:04:46.830Z,22.08
2022-10-18T02:07:14.315Z,26.45
2022-10-18T02:10:00.575Z,30.23
2022-10-18T02:12:31.769Z,32.97
2022-10-18T02:15:02.555Z,24.95
2022-10-18T02:17:32.122Z,26.63
2022-10-18T02:20:04.467Z,24.17
2022-10-18T02:22:33.963Z,22.87
2022-10-18T02:25:06.198Z,22.65
2022-10-18T02:27:33.724Z,26.33
2022-10-18T02:30:04.528Z,23.83
2022-10-18T02:32:38.736Z,22.60
2022-10-18T02:35:17.621Z,28.95
2022-10-18T02:37:49.210Z,24.20
2022-10-18T02:40:17.360Z,24.65
2022-10-18T02:42:49.053Z,26.00
2022-10-18T02:45:17.563Z,24.23
2022-10-18T02:47:48.115Z,25.05
2022-10-18T02:50:15.690Z,21.13
2022-10-18T02:52:43.258Z,24.50
2022-10-18T02:55:11.341Z,21.42
2022-10-18T02:57:38.988Z,26.45
2022-10-18T03:00:07.395Z,23.40
2022-10-18T03:02:36.408Z,25.85
2022-10-18T03:05:04.556Z,27.35
2022-10-18T03:07:32.565Z,23.75
2022-10-18T03:10:00.873Z,25.02
2022-10-18T03:12:28.402Z,23.23
2022-10-18T03:14:55.936Z,22.83
2022-10-18T03:17:23.756Z,22.80
2022-10-18T03:19:51.285Z,25.05
2022-10-18T03:22:18.842Z,26.50
2022-10-18T03:24:46.776Z,20.05
2022-10-18T03:27:14.288Z,23.65
2022-10-18T03:29:43.619Z,29.75
2022-10-18T03:32:11.693Z,21.60
2022-10-18T03:34:39.196Z,24.27
2022-10-18T03:37:06.730Z,23.75
2022-10-18T03:39:34.852Z,26.92
2022-10-18T03:42:02.403Z,19.48
2022-10-18T03:44:30.188Z,21.85
2022-10-18T03:46:58.050Z,29.12
2022-10-18T03:49:25.739Z,22.35
2022-10-18T03:51:53.237Z,20.17
2022-10-18T03:54:21.151Z,22.25
2022-10-18T03:56:48.771Z,28.48
2022-10-18T03:59:17.150Z,28.27
2022-10-18T04:01:45.209Z,27.83
2022-10-18T04:04:13.086Z,20.12
2022-10-18T04:06:41.209Z,18.90
2022-10-18T04:09:10.246Z,22.50
2022-10-18T04:11:38.376Z,17.33
2022-10-18T04:14:05.972Z,25.42
2022-10-18T04:16:33.734Z,25.02
2022-10-18T04:19:01.971Z,28.12
2022-10-18T04:21:29.664Z,24.65
2022-10-18T04:23:57.146Z,26.83
2022-10-18T04:26:25.094Z,28.38
2022-10-18T04:28:52.719Z,28.48
2022-10-18T04:31:20.714Z,22.23
2022-10-18T04:33:48.550Z,22.52
2022-10-18T04:36:16.039Z,25.58
2022-10-18T04:38:43.875Z,23.70
2022-10-18T04:41:11.890Z,22.92
2022-10-18T04:43:39.441Z,26.23
2022-10-18T04:46:07.080Z,27.23
2022-10-18T04:48:34.919Z,28.50
2022-10-18T04:51:02.461Z,31.35
2022-10-18T04:53:30.026Z,38.58
2022-10-18T04:55:57.819Z,25.90
2022-10-18T04:58:25.541Z,23.08
2022-10-18T05:00:53.107Z,40.45
2022-10-18T05:03:20.959Z,148.27
2022-10-18T05:06:03.953Z,69.90
2022-10-18T05:08:33.630Z,111.05
2022-10-18T05:11:01.837Z,85.32
2022-10-18T05:13:30.425Z,72.75
2022-10-18T05:16:00.269Z,89.22
2022-10-18T05:18:28.331Z,34.22
2022-10-18T05:20:56.582Z,58.30
2022-10-18T05:23:24.817Z,41.75
2022-10-18T05:25:52.542Z,27.98
2022-10-18T05:31:09.987Z,23.70
2022-10-18T05:33:37.796Z,22.77
2022-10-18T05:36:08.566Z,23.77
2022-10-18T05:38:40.161Z,23.02
2022-10-18T05:41:08.627Z,17.73
2022-10-18T05:43:36.194Z,17.35
2022-10-18T05:46:07.253Z,17.80
2022-10-18T05:48:37.593Z,22.85
2022-10-18T05:51:05.597Z,16.37
2022-10-18T05:53:37.588Z,16.10
2022-10-18T05:56:07.060Z,16.17
2022-10-18T05:58:35.307Z,35.75
2022-10-18T06:01:04.813Z,22.83
2022-10-18T06:03:33.290Z,19.45
2022-10-18T06:06:06.743Z,18.58
2022-10-18T06:08:35.572Z,21.08
2022-10-18T06:11:08.072Z,57.03
2022-10-18T06:13:43.364Z,16.52
2022-10-18T06:16:12.471Z,15.68
2022-10-18T06:18:51.680Z,17.35
2022-10-18T06:21:19.810Z,17.85
2022-10-18T06:23:51.874Z,17.85
2022-10-18T06:26:19.925Z,17.58
2022-10-18T06:28:48.226Z,15.18
2022-10-18T06:31:16.174Z,16.42
2022-10-18T06:33:43.985Z,15.88
2022-10-18T06:36:15.038Z,23.20
2022-10-18T06:38:42.700Z,24.52
2022-10-18T06:41:10.399Z,15.20
2022-10-18T06:43:38.313Z,16.45
2022-10-18T06:46:08.170Z,17.33
2022-10-18T06:48:36.418Z,15.02
2022-10-18T06:51:06.407Z,20.88
2022-10-18T06:53:43.883Z,56.10
2022-10-18T06:56:16.581Z,31.37
2022-10-18T06:58:44.090Z,21.55
2022-10-18T07:01:15.794Z,17.12
2022-10-18T07:03:45.272Z,21.83
2022-10-18T07:06:17.505Z,17.02
2022-10-18T07:08:46.881Z,19.20
2022-10-18T07:11:19.135Z,26.77
2022-10-18T07:13:50.235Z,36.35
2022-10-18T07:16:19.366Z,36.85
2022-10-18T07:18:51.634Z,30.02
2022-10-18T07:21:21.520Z,18.73
2022-10-18T07:23:50.933Z,24.60
2022-10-18T07:26:30.798Z,24.45
2022-10-18T07:29:02.342Z,20.90
2022-10-18T07:31:30.766Z,21.37
2022-10-18T07:33:58.721Z,18.40
2022-10-18T07:36:26.627Z,19.02
2022-10-18T07:38:54.390Z,23.12
2022-10-18T07:41:22.734Z,28.15
2022-10-18T07:43:51.998Z,20.95
2022-10-18T07:46:21.161Z,16.65
2022-10-18T07:48:49.509Z,17.70
2022-10-18T07:51:18.465Z,18.98
2022-10-18T07:53:46.408Z,23.83
2022-10-18T07:56:17.077Z,21.80
2022-10-18T07:58:45.830Z,20.62
2022-10-18T08:01:14.835Z,24.92
2022-10-18T08:03:43.666Z,22.70
2022-10-18T08:06:12.830Z,21.95
2022-10-18T08:08:41.148Z,19.95
2022-10-18T08:11:12.283Z,20.52
2022-10-18T08:13:39.919Z,22.40
2022-10-18T08:16:10.530Z,21.80
2022-10-18T08:21:08.294Z,20.83
2022-10-18T08:23:36.715Z,21.67
2022-10-18T08:26:06.667Z,24.02
2022-10-18T08:28:36.803Z,17.98
2022-10-18T08:33:35.839Z,21.23
2022-10-18T08:36:06.214Z,16.25
2022-10-18T08:38:36.478Z,25.00
2022-10-18T08:41:46.215Z,22.43
2022-10-18T08:44:32.647Z,23.73
2022-10-18T08:47:06.882Z,27.27
2022-10-18T08:49:47.342Z,25.05
2022-10-18T08:52:45.164Z,25.00
2022-10-18T08:55:45.182Z,25.05
2022-10-18T08:58:27.711Z,25.10
2022-10-18T09:01:07.685Z,27.98
2022-10-18T09:04:04.673Z,24.67
2022-10-18T09:06:32.396Z,29.85
2022-10-18T09:08:59.860Z,18.00
2022-10-18T09:11:33.933Z,23.58
2022-10-18T09:14:23.336Z,20.08
2022-10-18T09:16:59.401Z,18.48
2022-10-18T09:19:36.055Z,19.40
2022-10-18T09:22:14.714Z,22.13
2022-10-18T09:24:58.685Z,20.37
2022-10-18T09:27:50.883Z,16.42
2022-10-18T09:30:37.450Z,25.17
2022-10-18T09:33:23.239Z,17.42
2022-10-18T09:35:59.246Z,16.23
2022-10-18T09:38:31.995Z,16.65
2022-10-18T09:41:10.714Z,18.52
2022-10-18T09:43:56.671Z,15.55
2022-10-18T09:46:33.099Z,22.00
2022-10-18T09:49:16.280Z,25.42
2022-10-18T09:51:45.906Z,20.70
2022-10-18T09:54:42.707Z,20.83
2022-10-18T09:57:17.786Z,13.52
2022-10-18T09:59:50.422Z,14.07
2022-10-18T10:02:23.448Z,12.23
2022-10-18T10:04:52.299Z,14.38
2022-10-18T10:07:35.129Z,14.57
2022-10-18T10:10:22.568Z,16.17
2022-10-18T10:13:05.000Z,19.37
2022-10-18T10:15:37.161Z,15.05
2022-10-18T10:18:21.536Z,18.12
2022-10-18T10:20:55.435Z,13.73
2022-10-18T10:23:44.547Z,19.08
2022-10-18T10:26:33.496Z,12.00
2022-10-18T10:29:01.339Z,16.67
2022-10-18T10:31:33.847Z,16.37
2022-10-18T10:34:03.149Z,21.62
2022-10-18T10:36:32.367Z,10.70
2022-10-18T10:39:18.773Z,8.95
2022-10-18T10:41:52.513Z,14.32
2022-10-18T10:44:30.422Z,9.95
2022-10-18T10:46:59.417Z,8.10
2022-10-18T10:49:50.440Z,7.53
2022-10-18T10:52:29.074Z,17.35
2022-10-18T10:55:23.003Z,11.32
2022-10-18T10:57:49.025Z,10.05
2022-10-18T11:00:40.775Z,19.95
2022-10-18T11:03:33.800Z,11.02
2022-10-18T11:06:02.115Z,11.02
2022-10-18T11:08:41.148Z,8.57
2022-10-18T11:11:28.002Z,10.60
2022-10-18T11:14:26.457Z,11.63
2022-10-18T11:17:12.137Z,11.98
2022-10-18T11:20:01.345Z,8.52
2022-10-18T11:22:35.663Z,8.65
2022-10-18T11:25:05.002Z,7.62
2022-10-18T11:28:01.662Z,8.20
2022-10-18T11:30:40.984Z,6.62
2022-10-18T11:34:07.062Z,6.95
2022-10-18T11:36:49.342Z,5.05
2022-10-18T11:39:38.010Z,9.70
2022-10-18T11:42:16.592Z,10.88
2022-10-18T11:45:02.627Z,10.43
2022-10-18T11:47:40.293Z,6.10
2022-10-18T11:50:20.643Z,9.25
2022-10-18T11:53:07.381Z,7.57
2022-10-18T11:56:10.462Z,7.55
2022-10-18T11:58:55.207Z,6.68
2022-10-18T12:01:38.861Z,7.55
2022-10-18T12:04:21.811Z,8.45
2022-10-18T12:06:54.199Z,11.07
2022-10-18T12:09:30.957Z,13.00
2022-10-18T12:12:02.974Z,7.55
2022-10-18T12:14:38.968Z,11.48
2022-10-18T12:17:41.098Z,19.10
2022-10-18T12:20:31.797Z,9.13
2022-10-18T12:22:59.366Z,8.13
2022-10-18T12:25:30.394Z,7.18
2022-10-18T12:31:00.027Z,8.32
2022-10-18T12:33:31.783Z,7.03
2022-10-18T12:36:03.091Z,12.37
2022-10-18T12:41:03.512Z,8.57
2022-10-18T12:43:36.941Z,7.87
2022-10-18T12:46:13.011Z,8.20
2022-10-18T12:48:45.479Z,6.57
2022-10-18T12:51:20.421Z,6.93
2022-10-18T12:53:55.042Z,5.80
2022-10-18T12:56:28.910Z,10.63
2022-10-18T12:59:14.839Z,6.22
2022-10-18T13:02:20.644Z,7.05
2022-10-18T13:04:48.929Z,8.48
2022-10-18T13:07:40.950Z,8.85
2022-10-18T13:10:12.405Z,10.60
2022-10-18T13:13:38.636Z,8.55
2022-10-18T13:16:35.090Z,9.80
2022-10-18T13:19:40.463Z,6.37
2022-10-18T13:22:33.933Z,8.05
2022-10-18T13:25:10.823Z,8.32
2022-10-18T13:28:00.097Z,5.30
2022-10-18T13:30:46.592Z,12.35
2022-10-18T13:33:16.809Z,13.18
2022-10-18T13:35:49.132Z,7.50
2022-10-18T13:38:49.689Z,9.75
2022-10-18T13:44:30.407Z,9.95
2022-10-18T13:46:58.244Z,8.25
2022-10-18T13:49:50.644Z,11.48
2022-10-18T13:52:21.354Z,10.95
2022-10-18T13:55:10.380Z,12.25
2022-10-18T13:58:01.003Z,6.07
2022-10-18T14:00:52.834Z,17.75
2022-10-18T14:03:55.734Z,7.10
2022-10-18T14:06:22.839Z,10.82
2022-10-18T14:09:26.268Z,8.20
2022-10-18T14:12:23.918Z,5.40
2022-10-18T14:15:02.611Z,15.35
2022-10-18T14:17:36.946Z,6.32
2022-10-18T14:20:29.868Z,12.00
2022-10-18T14:23:17.546Z,9.25
2022-10-18T14:25:46.077Z,6.43
2022-10-18T14:28:17.443Z,16.77
2022-10-18T14:31:02.182Z,9.70
2022-10-18T14:33:45.483Z,9.73
2022-10-18T14:36:22.560Z,7.37
2022-10-18T14:38:58.917Z,8.43
2022-10-18T14:41:29.362Z,9.93
2022-10-18T14:44:32.541Z,24.58
2022-10-18T14:47:24.732Z,17.35
2022-10-18T14:49:54.539Z,19.42
2022-10-18T14:52:35.221Z,12.05
2022-10-18T14:55:03.746Z,9.60
2022-10-18T14:57:36.575Z,7.12
2022-10-18T15:00:08.843Z,9.75
2022-10-18T15:02:38.853Z,11.75
2022-10-18T15:05:14.592Z,13.80
2022-10-18T15:07:43.879Z,13.90
2022-10-18T15:10:19.191Z,11.65
2022-10-18T15:13:08.774Z,11.07
2022-10-18T15:15:36.738Z,13.90
2022-10-18T15:18:06.585Z,12.60
2022-10-18T15:20:39.502Z,10.88
2022-10-18T15:23:27.942Z,13.60
2022-10-18T15:26:08.187Z,21.10
2022-10-18T15:28:52.572Z,19.27
2022-10-18T15:31:33.284Z,14.93
2022-10-18T15:39:19.313Z,20.88
2022-10-18T15:41:59.008Z,18.08
2022-10-18T15:44:31.595Z,15.40
2022-10-18T15:47:21.646Z,10.88
2022-10-18T15:49:54.607Z,13.57
2022-10-18T15:52:37.459Z,18.48
2022-10-18T15:55:31.308Z,9.80
2022-10-18T15:58:26.551Z,19.85
2022-10-18T16:00:58.753Z,25.35
2022-10-18T16:03:28.194Z,28.08
2022-10-18T16:06:00.610Z,29.85
2022-10-18T16:08:30.769Z,18.58
2022-10-18T16:10:59.358Z,26.08
2022-10-18T16:13:27.167Z,19.62
2022-10-18T16:15:59.534Z,26.55
2022-10-18T16:18:28.041Z,49.45
2022-10-18T16:20:56.583Z,52.08
2022-10-18T16:23:26.600Z,38.10
2022-10-18T16:25:57.346Z,30.33
2022-10-18T16:28:26.074Z,35.03
2022-10-18T16:30:59.872Z,39.83
2022-10-18T16:33:27.934Z,48.05
2022-10-18T16:35:55.795Z,40.55
2022-10-18T16:38:35.256Z,20.88
2022-10-18T16:41:06.388Z,41.03
2022-10-18T16:43:35.460Z,28.12
2022-10-18T16:46:04.490Z,32.00
2022-10-18T16:48:32.325Z,25.70
2022-10-18T16:50:59.989Z,34.20
2022-10-18T16:53:28.218Z,32.13
2022-10-18T16:56:01.565Z,32.08
2022-10-18T16:58:31.820Z,37.28
2022-10-18T17:01:01.036Z,30.12
2022-10-18T17:03:33.738Z,37.03
2022-10-18T17:06:01.310Z,34.00
2022-10-18T17:08:29.361Z,37.33
2022-10-18T17:10:58.884Z,43.03
2022-10-18T17:13:29.662Z,30.33
2022-10-18T17:18:29.454Z,40.00
2022-10-18T17:21:00.774Z,24.17
2022-10-18T17:23:28.657Z,36.13
2022-10-18T17:26:05.442Z,29.23
2022-10-18T17:28:35.159Z,35.70
2022-10-18T17:31:06.322Z,33.78
2022-10-18T17:33:34.076Z,36.28
2022-10-18T17:36:02.253Z,34.05
2022-10-18T17:38:29.967Z,36.92
2022-10-18T17:41:05.177Z,54.53
2022-10-18T17:43:33.168Z,49.97
2022-10-18T17:46:00.833Z,50.58
2022-10-18T17:48:29.191Z,50.12
2022-10-18T17:50:57.289Z,54.15
2022-10-18T17:53:28.602Z,56.90
2022-10-18T17:56:02.437Z,51.37
2022-10-18T17:58:31.430Z,43.15
2022-10-18T18:01:15.421Z,56.58
2022-10-18T18:03:43.845Z,47.72
2022-10-18T18:06:18.720Z,49.15
2022-10-18T18:08:47.524Z,50.72
2022-10-18T18:11:15.291Z,69.07
2022-10-18T18:13:43.062Z,54.03
2022-10-18T18:16:15.343Z,54.85
2022-10-18T18:18:43.088Z,51.33
2022-10-18T18:21:11.446Z,53.75
2022-10-18T18:23:39.002Z,48.90
2022-10-18T18:26:06.633Z,69.62
2022-10-18T18:28:36.347Z,82.62
2022-10-18T18:31:14.404Z,81.18
2022-10-18T18:33:42.986Z,96.12
2022-10-18T18:36:11.941Z,98.00
2022-10-18T18:38:42.711Z,62.22
2022-10-18T18:41:17.846Z,55.90
2022-10-18T18:43:56.493Z,52.17
2022-10-18T18:46:26.074Z,54.67
2022-10-18T18:48:53.716Z,65.57
2022-10-18T18:51:22.572Z,51.15
2022-10-18T18:53:51.536Z,55.05
2022-10-18T18:58:55.599Z,47.92
2022-10-18T19:01:25.750Z,48.45
2022-10-18T19:03:56.169Z,51.00
2022-10-18T19:06:27.218Z,48.57
2022-10-18T19:09:01.445Z,78.18
2022-10-18T19:11:33.191Z,84.28
2022-10-18T19:14:01.154Z,62.88
2022-10-18T19:16:33.579Z,60.88
2022-10-18T19:19:11.701Z,62.08
2022-10-18T19:21:51.758Z,57.22
2022-10-18T19:24:21.201Z,58.65
2022-10-18T19:26:54.805Z,57.38
2022-10-18T19:29:28.305Z,71.68
2022-10-18T19:32:00.044Z,57.35
2022-10-18T19:34:29.435Z,61.27
2022-10-18T19:36:57.721Z,59.92
2022-10-18T19:39:28.598Z,51.63
2022-10-18T19:41:58.097Z,53.50
2022-10-18T19:44:28.947Z,45.65
2022-10-18T19:46:57.205Z,58.95
2022-10-18T19:49:25.048Z,47.22
2022-10-18T19:51:52.996Z,60.15
2022-10-18T19:54:21.130Z,46.05
2022-10-18T19:56:48.783Z,48.15
2022-10-18T19:59:17.834Z,43.03
2022-10-18T20:01:45.774Z,47.75
2022-10-18T20:04:13.974Z,53.63
2022-10-18T20:06:42.416Z,50.75
2022-10-18T20:09:14.633Z,51.35
2022-10-18T20:11:45.646Z,52.65
2022-10-18T20:14:13.140Z,56.10
2022-10-18T20:16:40.707Z,52.55
2022-10-18T20:19:09.504Z,55.90
2022-10-18T20:21:37.079Z,60.25
2022-10-18T20:24:05.969Z,51.53
2022-10-18T20:26:35.857Z,56.40
2022-10-18T20:29:04.292Z,45.85
2022-10-18T20:31:35.637Z,46.20
2022-10-18T20:34:06.682Z,46.80
2022-10-18T20:36:34.870Z,38.45
2022-10-18T20:39:03.853Z,44.05
2022-10-18T20:41:34.852Z,42.67
2022-10-18T20:44:07.038Z,38.65
2022-10-18T20:46:36.620Z,40.85
2022-10-18T20:49:06.463Z,46.63
2022-10-18T20:51:35.206Z,43.17
2022-10-18T20:56:38.700Z,34.85
2022-10-18T20:59:09.834Z,38.05
2022-10-18T21:04:10.545Z,43.85
2022-10-18T21:06:41.018Z,37.92
2022-10-18T21:09:18.163Z,41.17
2022-10-18T21:11:51.190Z,52.70
2022-10-18T21:14:20.578Z,52.75
2022-10-18T21:16:49.722Z,44.38
2022-10-18T21:19:18.684Z,48.15
2022-10-18T21:21:50.303Z,39.92
2022-10-18T21:24:19.296Z,44.45
2022-10-18T21:26:51.192Z,47.58
2022-10-18T21:29:22.261Z,39.33
2022-10-18T21:31:55.110Z,34.63
2022-10-18T21:34:22.769Z,38.25
2022-10-18T21:36:50.601Z,37.90
2022-10-18T21:39:21.145Z,33.42
2022-10-18T21:41:49.936Z,31.00
2022-10-18T21:44:17.884Z,33.80
2022-10-18T21:46:46.835Z,23.85
2022-10-18T21:49:15.653Z,28.33
2022-10-18T21:51:44.447Z,26.05
2022-10-18T21:54:13.896Z,27.75
2022-10-18T21:56:41.695Z,26.77
2022-10-18T21:59:15.842Z,24.50
2022-10-18T22:01:44.625Z,28.87
2022-10-18T22:04:25.495Z,23.02
2022-10-18T22:06:53.199Z,22.15
2022-10-18T22:09:22.089Z,24.60
2022-10-18T22:11:52.987Z,23.98
2022-10-18T22:16:48.813Z,26.23
2022-10-18T22:19:16.781Z,23.27
2022-10-18T22:21:44.708Z,23.67
2022-10-18T22:24:12.261Z,20.70
2022-10-18T22:26:41.646Z,26.80
2022-10-18T22:29:20.703Z,22.10
2022-10-18T22:31:53.181Z,21.77
2022-10-18T22:34:24.527Z,25.02
2022-10-18T22:36:52.099Z,22.33
2022-10-18T22:39:19.846Z,21.75
2022-10-18T22:41:52.084Z,22.30
2022-10-18T22:44:19.679Z,21.12
2022-10-18T22:46:47.493Z,21.05
2022-10-18T22:49:15.237Z,26.80
2022-10-18T22:51:42.867Z,30.98
2022-10-18T22:54:10.861Z,23.90
2022-10-18T22:56:38.674Z,19.65
2022-10-18T22:59:06.254Z,20.30
2022-10-18T23:01:34.390Z,22.20
2022-10-18T23:04:03.858Z,19.55
2022-10-18T23:06:33.811Z,19.83
2022-10-18T23:09:05.335Z,19.20
2022-10-18T23:11:33.470Z,21.30
2022-10-18T23:14:03.762Z,20.70
2022-10-18T23:16:32.482Z,19.45
2022-10-18T23:19:00.277Z,22.33
2022-10-18T23:21:29.147Z,20.75
2022-10-18T23:23:57.294Z,22.90
2022-10-18T23:26:27.245Z,20.60
2022-10-18T23:28:55.781Z,22.15
2022-10-18T23:31:26.590Z,24.67
2022-10-18T23:33:58.353Z,22.05
2022-10-18T23:36:26.666Z,20.52
2022-10-18T23:38:55.385Z,20.25
2022-10-18T23:41:23.282Z,24.90
2022-10-18T23:43:51.743Z,21.83
2022-10-18T23:46:19.777Z,20.75
2022-10-18T23:48:48.120Z,18.35
2022-10-18T23:51:17.401Z,19.37
2022-10-18T23:53:45.377Z,23.45
2022-10-18T23:56:15.729Z,19.27
2022-10-18T23:58:44.612Z,24.55
